Flight Track Log - Related Links

Times and Time Zones

All times are in EDT time to prevent confusion due to time zone crossing. See the UAL582 flight status page for this flight to view local times or setup timezone preferences in your user account.

Time Position Orientation Groundspeed Altitude Reporting Facility
EDT Latitude Longitude Course Direction KTS MPH feet Rate Location/Type
Wed 05:23:51 PM 43.6833 -79.6167 270° West 50 58 1,300  Level Toronto Center
Wed 05:24:51 PM 43.7333 -79.5833 26° Northeast 190 219 3,100 2,200 Climbing Toronto Center
Wed 05:25:51 PM 43.7833 -79.5833 360° North 250 288 5,700 1,950 Climbing Toronto Center
Wed 05:26:00 PM 43.7011 -79.9793 277° West  Level FlightAware Approximate
Wed 05:26:51 PM 43.8000 -79.6833 283° West 280 322 7,000  Level Toronto Center
Wed 05:27:00 PM 43.7113 -80.1012 277° West  Level FlightAware Approximate
Wed 05:27:51 PM 43.8167 -79.8000 281° West 290 334 7,000  Level Toronto Center
Wed 05:28:00 PM 43.7173 -80.2235 277° West  Level FlightAware Approximate
Wed 05:28:51 PM 43.8333 -79.9167 281° West 290 334 7,000  Level Toronto Center
Wed 05:29:00 PM 43.7284 -80.3453 277° West  Level FlightAware Approximate
Wed 05:29:51 PM 43.8167 -80.0333 259° West 290 334 7,000  Level Toronto Center
Wed 05:30:00 PM 43.7334 -80.4677 270° West  Level FlightAware Approximate
Wed 05:30:51 PM 43.8000 -80.1167 255° West 290 334 8,100  Level Toronto Center
Wed 05:31:51 PM 43.7833 -80.2500 260° West 300 345 11,000 2,150 Climbing Toronto Center
Wed 05:32:51 PM 43.7667 -80.3667 259° West 350 403 12,400 2,050 Climbing Toronto Center
Wed 05:33:51 PM 43.7500 -80.5333 262° West 380 437 15,100 2,400 Climbing Toronto Center
Wed 05:34:51 PM 43.7167 -80.6667 251° West 390 449 17,200 2,100 Climbing Toronto Center
Wed 05:35:51 PM 43.6667 -80.8333 248° West 400 460 19,300 1,900 Climbing Toronto Center
Wed 05:36:51 PM 43.6333 -80.9667 251° West 410 472 21,000 1,600 Climbing Toronto Center
Wed 05:37:51 PM 43.6000 -81.1000 251° West 420 483 22,500 1,550 Climbing Toronto Center
Wed 05:38:51 PM 43.5833 -81.2833 263° West 420 483 24,100 1,750 Climbing Toronto Center
Wed 05:39:51 PM 43.5833 -81.4500 270° West 430 495 26,000 2,400 Climbing Toronto Center
Wed 05:40:51 PM 43.5667 -81.5833 260° West 400 460 28,900 1,600 Climbing Toronto Center
Wed 05:41:51 PM 43.5500 -81.7500 262° West 400 460 29,200 450 Climbing Toronto Center
Wed 05:42:51 PM 43.5333 -81.9167 262° West 430 495 29,800 800 Climbing Toronto Center
Wed 05:43:51 PM 43.4667 -82.0667 239° Southwest 450 518 30,800 1,050 Climbing Toronto Center
Wed 05:44:51 PM 43.4167 -82.2500 249° West 450 518 31,900 600 Climbing Toronto Center
Wed 05:45:51 PM 43.3833 -82.3833 251° West 450 518 32,000 50 Climbing Toronto Center
Wed 05:46:51 PM 43.3333 -82.5667 250° West 450 518 32,000  Level Toronto Center
Wed 05:47:51 PM 43.2667 -82.7000 236° Southwest 450 518 32,000  Level Toronto Center
Wed 05:48:51 PM 43.2333 -82.8833 256° West 450 518 32,000  Level Toronto Center
Wed 05:49:51 PM 43.1833 -83.0167 243° Southwest 450 518 32,000  Level Toronto Center
Wed 05:50:51 PM 43.1333 -83.2000 250° West 450 518 32,000  Level Toronto Center
Wed 05:51:51 PM 43.0833 -83.3500 246° West 450 518 32,000  Level Toronto Center
Wed 05:52:51 PM 43.0333 -83.4833 243° Southwest 450 518 32,000  Level Toronto Center
Wed 05:53:51 PM 42.9833 -83.6667 250° West 450 518 32,000  Level Toronto Center
Wed 05:54:51 PM 42.9500 -83.8167 253° West 450 518 32,000  Level Toronto Center
Wed 05:55:40 PM 42.9467 -83.9625 268° West 441 507 32,000  Level Chicago Center
Wed 05:56:42 PM 42.9300 -84.1283 262° West 441 507 32,000  Level Chicago Center
Wed 05:57:44 PM 42.9136 -84.2933 262° West 440 506 32,000  Level Chicago Center
Wed 05:58:47 PM 42.8972 -84.4581 262° West 440 506 32,000  Level Chicago Center
Wed 05:59:49 PM 42.8811 -84.6239 263° West 442 509 32,000  Level Chicago Center
Wed 06:00:51 PM 42.8633 -84.7892 262° West 441 507 32,000  Level Chicago Center
Wed 06:01:53 PM 42.8431 -84.9783 262° West 423 487 32,000  Level Chicago Center
Wed 06:02:55 PM 42.8267 -85.1364 262° West 421 484 32,000 -97 Level Chicago Center
Wed 06:03:57 PM 42.8094 -85.2936 262° West 421 484 31,800 -581 Descending Chicago Center
Wed 06:04:59 PM 42.7919 -85.4511 261° West 422 486 30,800 -1,548 Descending Chicago Center
Wed 06:06:01 PM 42.7664 -85.6064 257° West 420 483 28,600 -3,097 Descending Chicago Center
Wed 06:07:03 PM 42.7400 -85.7544 256° West 405 466 24,400 -3,677 Descending Chicago Center
Wed 06:08:05 PM 42.7142 -85.8958 256° West 389 448 21,000 -2,112 Descending Chicago Center
Wed 06:09:08 PM 42.6850 -86.0578 256° West 371 427 20,000 -480 Descending Chicago Center
Wed 06:10:10 PM 42.6606 -86.1914 256° West 364 419 20,000  Level Chicago Center
Wed 06:11:12 PM 42.6358 -86.3214 256° West 358 412 20,000 -48 Level Chicago Center
Wed 06:12:14 PM 42.6117 -86.4531 256° West 360 414 19,900 -823 Descending Chicago Center
Wed 06:13:16 PM 42.5839 -86.5953 255° West 387 445 18,300 -1,694 Descending Chicago Center
Wed 06:14:18 PM 42.5528 -86.7642 256° West 394 453 16,400 -1,597 Descending Chicago Center
Wed 06:15:20 PM 42.5217 -86.8758 249° West 384 442 15,000 -1,597 Descending Chicago Center
Wed 06:16:22 PM 42.4775 -87.0339 249° West 375 432 13,100 -1,742 Descending Chicago Center
Wed 06:17:24 PM 42.4417 -87.1611 249° West 364 419 11,400 -1,500 Descending Chicago Center
Wed 06:18:26 PM 42.4056 -87.2897 249° West 366 421 10,000 -677 Descending Chicago Center
Wed 06:19:28 PM 42.3667 -87.4336 250° West 360 414 10,000  Level Chicago Center
Wed 06:20:31 PM 42.2975 -87.5319 226° Southwest 367 422 10,000 -48 Level Chicago Center
Wed 06:21:33 PM 42.2272 -87.6192 223° Southwest 344 396 9,900 -677 Descending Chicago Center
Wed 06:22:35 PM 42.1642 -87.6942 221° Southwest 308 354 8,600 -1,355 Descending Chicago Center
Wed 06:23:37 PM 42.1025 -87.7672 221° Southwest 298 343 7,100 -774 Descending Chicago Center
Wed 06:24:39 PM 42.0119 -87.8044 197° South 285 328 7,000 -48 Descending Chicago Center
Wed 06:25:42 PM 41.9456 -87.8297 196° South 254 292 7,000 -48 Level Chicago Center
Wed 06:26:43 PM 41.8781 -87.8547 195° South 253 291 6,900 -585 Descending Chicago Center
Wed 06:27:45 PM 41.8169 -87.8908 204° Southwest 248 285 5,800 -1,065 Descending Chicago Center
Wed 06:28:47 PM 41.7631 -87.9447 217° Southwest 246 283 4,700 -871 Descending Chicago Center
Wed 06:29:49 PM 41.7825 -88.0331 286° West 235 270 4,000 -432 Descending Chicago Center
Wed 06:30:52 PM 41.8267 -88.0436 350° North 207 238 3,800 -528 Descending Chicago Center
Wed 06:31:54 PM 41.8644 -88.0058 37° Northeast 182 209 2,900 -823 Descending Chicago Center
Wed 06:32:56 PM 41.8992 -87.9639 42° Northeast 174 200 2,100 -726 Descending Chicago Center
Wed 06:33:58 PM 41.9275 -87.9303 41° Northeast 157 181 1,400 -484 Descending Chicago Center
Wed 06:35:00 PM 41.9586 -87.8922 42° Northeast 148 170 1,100 -290 Descending Chicago Center

Login

Don't have an account? Register now (free) for customized features, flight alerts, and more!